sensor_id;sensor_type;location;lat;lon;timestamp;temperature;humidity
13482;DHT22;6813;60.352;15.746;2023-06-19T00:01:44;18.80;95.90
13482;DHT22;6813;60.352;15.746;2023-06-19T00:04:10;18.80;95.40
13482;DHT22;6813;60.352;15.746;2023-06-19T00:06:36;18.70;96.90
13482;DHT22;6813;60.352;15.746;2023-06-19T00:09:02;18.60;95.80
13482;DHT22;6813;60.352;15.746;2023-06-19T00:11:29;18.70;95.90
13482;DHT22;6813;60.352;15.746;2023-06-19T00:13:55;18.60;96.30
13482;DHT22;6813;60.352;15.746;2023-06-19T00:16:20;18.60;96.50
13482;DHT22;6813;60.352;15.746;2023-06-19T00:18:46;18.60;96.70
13482;DHT22;6813;60.352;15.746;2023-06-19T00:21:12;18.70;96.80
13482;DHT22;6813;60.352;15.746;2023-06-19T00:23:38;18.50;97.00
13482;DHT22;6813;60.352;15.746;2023-06-19T00:26:04;18.50;97.50
13482;DHT22;6813;60.352;15.746;2023-06-19T00:28:30;18.60;97.10
13482;DHT22;6813;60.352;15.746;2023-06-19T00:30:56;18.50;96.80
13482;DHT22;6813;60.352;15.746;2023-06-19T00:33:22;18.50;97.80
13482;DHT22;6813;60.352;15.746;2023-06-19T00:35:50;18.50;96.20
13482;DHT22;6813;60.352;15.746;2023-06-19T00:38:16;18.50;95.80
13482;DHT22;6813;60.352;15.746;2023-06-19T00:40:41;18.50;96.90
13482;DHT22;6813;60.352;15.746;2023-06-19T00:43:07;18.50;97.30
13482;DHT22;6813;60.352;15.746;2023-06-19T00:45:33;18.50;96.80
13482;DHT22;6813;60.352;15.746;2023-06-19T00:48:00;18.50;97.40
13482;DHT22;6813;60.352;15.746;2023-06-19T00:50:28;18.50;97.90
13482;DHT22;6813;60.352;15.746;2023-06-19T00:52:55;18.40;97.90
13482;DHT22;6813;60.352;15.746;2023-06-19T00:55:21;18.40;97.60
13482;DHT22;6813;60.352;15.746;2023-06-19T00:57:49;18.50;97.00
13482;DHT22;6813;60.352;15.746;2023-06-19T01:00:15;18.50;97.40
13482;DHT22;6813;60.352;15.746;2023-06-19T01:02:40;18.60;96.90
13482;DHT22;6813;60.352;15.746;2023-06-19T01:05:07;18.60;96.80
13482;DHT22;6813;60.352;15.746;2023-06-19T01:10:12;18.60;97.70
13482;DHT22;6813;60.352;15.746;2023-06-19T01:12:42;18.60;98.00
13482;DHT22;6813;60.352;15.746;2023-06-19T01:15:14;18.50;98.00
13482;DHT22;6813;60.352;15.746;2023-06-19T01:17:40;18.30;98.70
13482;DHT22;6813;60.352;15.746;2023-06-19T01:20:07;18.30;99.30
13482;DHT22;6813;60.352;15.746;2023-06-19T01:22:36;18.20;99.60
13482;DHT22;6813;60.352;15.746;2023-06-19T01:25:03;18.30;99.20
13482;DHT22;6813;60.352;15.746;2023-06-19T01:27:32;18.20;99.80
13482;DHT22;6813;60.352;15.746;2023-06-19T01:29:59;18.20;99.80
13482;DHT22;6813;60.352;15.746;2023-06-19T01:32:50;18.00;99.90
13482;DHT22;6813;60.352;15.746;2023-06-19T01:35:23;17.70;99.90
13482;DHT22;6813;60.352;15.746;2023-06-19T01:37:50;17.90;99.90
13482;DHT22;6813;60.352;15.746;2023-06-19T01:40:17;17.80;99.90
13482;DHT22;6813;60.352;15.746;2023-06-19T01:42:46;17.80;99.90
13482;DHT22;6813;60.352;15.746;2023-06-19T01:45:12;17.80;99.90
13482;DHT22;6813;60.352;15.746;2023-06-19T01:47:38;17.80;99.90
13482;DHT22;6813;60.352;15.746;2023-06-19T01:50:05;17.70;99.90
13482;DHT22;6813;60.352;15.746;2023-06-19T01:52:31;17.70;99.90
13482;DHT22;6813;60.352;15.746;2023-06-19T01:54:57;17.60;99.90
13482;DHT22;6813;60.352;15.746;2023-06-19T01:57:23;17.70;99.90
13482;DHT22;6813;60.352;15.746;2023-06-19T01:59:48;17.50;99.90
13482;DHT22;6813;60.352;15.746;2023-06-19T02:02:14;17.50;99.90
13482;DHT22;6813;60.352;15.746;2023-06-19T02:04:40;17.50;99.90
13482;DHT22;6813;60.352;15.746;2023-06-19T02:07:05;17.70;99.90
13482;DHT22;6813;60.352;15.746;2023-06-19T02:09:31;17.80;99.90
13482;DHT22;6813;60.352;15.746;2023-06-19T02:11:57;17.90;99.90
13482;DHT22;6813;60.352;15.746;2023-06-19T02:14:22;18.00;99.90
13482;DHT22;6813;60.352;15.746;2023-06-19T02:16:48;18.10;99.90
13482;DHT22;6813;60.352;15.746;2023-06-19T02:19:14;18.20;99.90
13482;DHT22;6813;60.352;15.746;2023-06-19T02:21:40;18.30;98.90
13482;DHT22;6813;60.352;15.746;2023-06-19T02:24:05;18.40;98.00
13482;DHT22;6813;60.352;15.746;2023-06-19T02:26:31;18.40;98.60
13482;DHT22;6813;60.352;15.746;2023-06-19T02:28:57;18.50;98.90
13482;DHT22;6813;60.352;15.746;2023-06-19T02:31:23;18.50;99.60
13482;DHT22;6813;60.352;15.746;2023-06-19T02:33:49;18.50;99.80
13482;DHT22;6813;60.352;15.746;2023-06-19T02:36:15;18.60;99.40
13482;DHT22;6813;60.352;15.746;2023-06-19T02:38:48;18.60;97.20
13482;DHT22;6813;60.352;15.746;2023-06-19T02:41:14;18.60;97.10
13482;DHT22;6813;60.352;15.746;2023-06-19T02:43:44;18.60;98.30
13482;DHT22;6813;60.352;15.746;2023-06-19T02:46:12;18.60;99.50
13482;DHT22;6813;60.352;15.746;2023-06-19T02:48:38;18.60;98.90
13482;DHT22;6813;60.352;15.746;2023-06-19T02:51:03;18.70;96.90
13482;DHT22;6813;60.352;15.746;2023-06-19T02:53:29;18.70;96.80
13482;DHT22;6813;60.352;15.746;2023-06-19T02:55:55;18.70;97.40
13482;DHT22;6813;60.352;15.746;2023-06-19T02:58:20;18.80;97.10
13482;DHT22;6813;60.352;15.746;2023-06-19T03:00:46;18.80;97.20
13482;DHT22;6813;60.352;15.746;2023-06-19T03:03:12;18.80;97.30
13482;DHT22;6813;60.352;15.746;2023-06-19T03:05:38;18.80;98.70
13482;DHT22;6813;60.352;15.746;2023-06-19T03:08:04;18.90;98.40
13482;DHT22;6813;60.352;15.746;2023-06-19T03:10:30;18.80;98.10
13482;DHT22;6813;60.352;15.746;2023-06-19T03:12:56;18.80;98.40
13482;DHT22;6813;60.352;15.746;2023-06-19T03:15:24;18.90;99.20
13482;DHT22;6813;60.352;15.746;2023-06-19T03:17:50;18.80;99.40
13482;DHT22;6813;60.352;15.746;2023-06-19T03:20:15;18.80;99.90
13482;DHT22;6813;60.352;15.746;2023-06-19T03:22:42;18.80;99.90
13482;DHT22;6813;60.352;15.746;2023-06-19T03:25:08;18.80;99.90
13482;DHT22;6813;60.352;15.746;2023-06-19T03:27:34;18.80;99.60
13482;DHT22;6813;60.352;15.746;2023-06-19T03:30:00;18.80;99.50
13482;DHT22;6813;60.352;15.746;2023-06-19T03:32:26;18.80;99.90
13482;DHT22;6813;60.352;15.746;2023-06-19T03:34:52;18.80;99.90
13482;DHT22;6813;60.352;15.746;2023-06-19T03:37:17;18.80;99.90
13482;DHT22;6813;60.352;15.746;2023-06-19T03:39:43;18.90;99.20
13482;DHT22;6813;60.352;15.746;2023-06-19T03:42:09;18.80;99.90
13482;DHT22;6813;60.352;15.746;2023-06-19T03:44:35;18.80;99.90
13482;DHT22;6813;60.352;15.746;2023-06-19T03:47:00;18.80;99.90
13482;DHT22;6813;60.352;15.746;2023-06-19T03:49:26;18.70;99.90
13482;DHT22;6813;60.352;15.746;2023-06-19T03:51:52;18.60;99.90
13482;DHT22;6813;60.352;15.746;2023-06-19T03:54:20;18.60;99.90
13482;DHT22;6813;60.352;15.746;2023-06-19T03:56:45;18.70;99.90
13482;DHT22;6813;60.352;15.746;2023-06-19T03:59:11;18.60;99.90
13482;DHT22;6813;60.352;15.746;2023-06-19T04:01:37;18.40;99.90
13482;DHT22;6813;60.352;15.746;2023-06-19T04:04:02;18.00;99.90
13482;DHT22;6813;60.352;15.746;2023-06-19T04:06:28;18.00;99.90
13482;DHT22;6813;60.352;15.746;2023-06-19T04:08:54;17.90;99.90
13482;DHT22;6813;60.352;15.746;2023-06-19T04:11:20;17.80;99.90
13482;DHT22;6813;60.352;15.746;2023-06-19T04:13:46;18.00;99.90
13482;DHT22;6813;60.352;15.746;2023-06-19T04:16:12;17.80;99.90
13482;DHT22;6813;60.352;15.746;2023-06-19T04:18:38;17.70;99.90
13482;DHT22;6813;60.352;15.746;2023-06-19T04:21:04;17.80;99.90
13482;DHT22;6813;60.352;15.746;2023-06-19T04:23:30;17.80;99.90
13482;DHT22;6813;60.352;15.746;2023-06-19T04:25:55;17.70;99.90
13482;DHT22;6813;60.352;15.746;2023-06-19T04:28:21;17.60;99.90
13482;DHT22;6813;60.352;15.746;2023-06-19T04:30:47;17.40;99.90
13482;DHT22;6813;60.352;15.746;2023-06-19T04:33:12;17.40;99.90
13482;DHT22;6813;60.352;15.746;2023-06-19T04:35:38;17.30;99.90
13482;DHT22;6813;60.352;15.746;2023-06-19T04:38:09;17.30;99.90
13482;DHT22;6813;60.352;15.746;2023-06-19T04:40:35;17.20;99.90
13482;DHT22;6813;60.352;15.746;2023-06-19T04:43:01;17.30;99.90
13482;DHT22;6813;60.352;15.746;2023-06-19T04:45:28;17.40;99.90
13482;DHT22;6813;60.352;15.746;2023-06-19T04:47:54;17.40;99.90
13482;DHT22;6813;60.352;15.746;2023-06-19T04:50:23;17.50;99.90
13482;DHT22;6813;60.352;15.746;2023-06-19T04:52:48;17.30;99.90
13482;DHT22;6813;60.352;15.746;2023-06-19T04:55:16;17.40;99.90
13482;DHT22;6813;60.352;15.746;2023-06-19T04:57:41;17.20;99.90
13482;DHT22;6813;60.352;15.746;2023-06-19T05:00:07;17.00;99.90
13482;DHT22;6813;60.352;15.746;2023-06-19T05:02:35;17.00;99.90
13482;DHT22;6813;60.352;15.746;2023-06-19T05:05:01;17.10;99.90
13482;DHT22;6813;60.352;15.746;2023-06-19T05:07:31;17.10;99.90
13482;DHT22;6813;60.352;15.746;2023-06-19T05:09:58;17.00;99.90
13482;DHT22;6813;60.352;15.746;2023-06-19T05:12:24;17.00;99.90
13482;DHT22;6813;60.352;15.746;2023-06-19T05:14:50;17.00;99.90
13482;DHT22;6813;60.352;15.746;2023-06-19T05:17:15;16.90;99.90
13482;DHT22;6813;60.352;15.746;2023-06-19T05:19:41;16.70;99.90
13482;DHT22;6813;60.352;15.746;2023-06-19T05:22:07;16.80;99.90
13482;DHT22;6813;60.352;15.746;2023-06-19T05:24:33;16.90;99.90
13482;DHT22;6813;60.352;15.746;2023-06-19T05:26:59;16.90;99.90
13482;DHT22;6813;60.352;15.746;2023-06-19T05:29:24;17.00;99.90
13482;DHT22;6813;60.352;15.746;2023-06-19T05:31:50;17.00;99.90
13482;DHT22;6813;60.352;15.746;2023-06-19T05:34:16;16.80;99.90
13482;DHT22;6813;60.352;15.746;2023-06-19T05:36:42;16.90;99.90
13482;DHT22;6813;60.352;15.746;2023-06-19T05:39:12;16.90;99.90
13482;DHT22;6813;60.352;15.746;2023-06-19T05:41:38;16.90;99.90
13482;DHT22;6813;60.352;15.746;2023-06-19T05:44:04;17.00;99.90
13482;DHT22;6813;60.352;15.746;2023-06-19T05:46:29;17.20;99.90
13482;DHT22;6813;60.352;15.746;2023-06-19T05:48:55;17.30;99.90
13482;DHT22;6813;60.352;15.746;2023-06-19T05:51:21;17.40;99.90
13482;DHT22;6813;60.352;15.746;2023-06-19T05:53:46;17.40;99.90
13482;DHT22;6813;60.352;15.746;2023-06-19T05:56:14;17.50;99.90
13482;DHT22;6813;60.352;15.746;2023-06-19T05:58:40;17.70;99.90
13482;DHT22;6813;60.352;15.746;2023-06-19T06:01:05;17.80;99.90
13482;DHT22;6813;60.352;15.746;2023-06-19T06:03:32;17.80;99.90
13482;DHT22;6813;60.352;15.746;2023-06-19T06:05:58;17.80;99.90
13482;DHT22;6813;60.352;15.746;2023-06-19T06:08:31;17.90;99.90
13482;DHT22;6813;60.352;15.746;2023-06-19T06:10:57;17.70;99.90
13482;DHT22;6813;60.352;15.746;2023-06-19T06:13:23;17.70;99.90
13482;DHT22;6813;60.352;15.746;2023-06-19T06:15:50;17.90;99.90
13482;DHT22;6813;60.352;15.746;2023-06-19T06:18:16;17.90;99.90
13482;DHT22;6813;60.352;15.746;2023-06-19T06:20:41;17.80;99.90
13482;DHT22;6813;60.352;15.746;2023-06-19T06:23:07;17.80;99.90
13482;DHT22;6813;60.352;15.746;2023-06-19T06:25:33;17.90;99.90
13482;DHT22;6813;60.352;15.746;2023-06-19T06:27:59;17.70;99.90
13482;DHT22;6813;60.352;15.746;2023-06-19T06:30:24;17.50;99.90
13482;DHT22;6813;60.352;15.746;2023-06-19T06:32:50;17.50;99.90
13482;DHT22;6813;60.352;15.746;2023-06-19T06:35:16;17.40;99.90
13482;DHT22;6813;60.352;15.746;2023-06-19T06:37:42;17.30;99.90
13482;DHT22;6813;60.352;15.746;2023-06-19T06:40:09;17.30;99.90
13482;DHT22;6813;60.352;15.746;2023-06-19T06:42:36;17.10;99.90
13482;DHT22;6813;60.352;15.746;2023-06-19T06:45:03;17.10;99.90
13482;DHT22;6813;60.352;15.746;2023-06-19T06:47:29;17.20;99.90
13482;DHT22;6813;60.352;15.746;2023-06-19T06:49:55;17.30;99.90
13482;DHT22;6813;60.352;15.746;2023-06-19T06:52:20;17.30;99.90
13482;DHT22;6813;60.352;15.746;2023-06-19T06:54:46;17.30;99.90
13482;DHT22;6813;60.352;15.746;2023-06-19T06:57:12;17.10;99.90
13482;DHT22;6813;60.352;15.746;2023-06-19T06:59:37;17.00;99.90
13482;DHT22;6813;60.352;15.746;2023-06-19T07:02:03;16.90;99.90
13482;DHT22;6813;60.352;15.746;2023-06-19T07:04:29;17.00;99.90
13482;DHT22;6813;60.352;15.746;2023-06-19T07:06:55;17.00;99.90
13482;DHT22;6813;60.352;15.746;2023-06-19T07:09:20;16.90;99.90
13482;DHT22;6813;60.352;15.746;2023-06-19T07:11:49;16.90;99.90
13482;DHT22;6813;60.352;15.746;2023-06-19T07:14:15;16.90;99.90
13482;DHT22;6813;60.352;15.746;2023-06-19T07:16:44;16.80;99.90
13482;DHT22;6813;60.352;15.746;2023-06-19T07:19:10;16.90;99.90
13482;DHT22;6813;60.352;15.746;2023-06-19T07:21:36;17.00;99.90
13482;DHT22;6813;60.352;15.746;2023-06-19T07:24:04;17.00;99.90
13482;DHT22;6813;60.352;15.746;2023-06-19T07:26:31;17.10;99.90
13482;DHT22;6813;60.352;15.746;2023-06-19T07:28:56;17.20;99.90
13482;DHT22;6813;60.352;15.746;2023-06-19T07:31:22;17.30;99.90
13482;DHT22;6813;60.352;15.746;2023-06-19T07:33:48;17.40;99.90
13482;DHT22;6813;60.352;15.746;2023-06-19T07:36:14;17.50;99.90
13482;DHT22;6813;60.352;15.746;2023-06-19T07:38:43;17.50;99.90
13482;DHT22;6813;60.352;15.746;2023-06-19T07:41:09;17.30;99.90
13482;DHT22;6813;60.352;15.746;2023-06-19T07:43:36;17.40;99.90
13482;DHT22;6813;60.352;15.746;2023-06-19T07:46:02;17.40;99.90
13482;DHT22;6813;60.352;15.746;2023-06-19T07:48:28;17.50;99.90
13482;DHT22;6813;60.352;15.746;2023-06-19T07:50:54;17.50;99.90
13482;DHT22;6813;60.352;15.746;2023-06-19T07:53:20;17.50;99.90
13482;DHT22;6813;60.352;15.746;2023-06-19T07:55:45;17.50;99.90
13482;DHT22;6813;60.352;15.746;2023-06-19T07:58:12;17.40;99.90
13482;DHT22;6813;60.352;15.746;2023-06-19T08:00:38;17.40;99.90
13482;DHT22;6813;60.352;15.746;2023-06-19T08:03:04;17.20;99.90
13482;DHT22;6813;60.352;15.746;2023-06-19T08:05:30;17.10;99.90
13482;DHT22;6813;60.352;15.746;2023-06-19T08:07:56;17.10;99.90
13482;DHT22;6813;60.352;15.746;2023-06-19T08:10:23;17.00;99.90
13482;DHT22;6813;60.352;15.746;2023-06-19T08:12:49;17.10;99.90
13482;DHT22;6813;60.352;15.746;2023-06-19T08:15:15;17.20;99.90
13482;DHT22;6813;60.352;15.746;2023-06-19T08:17:41;17.20;99.90
13482;DHT22;6813;60.352;15.746;2023-06-19T08:20:08;17.20;99.90
13482;DHT22;6813;60.352;15.746;2023-06-19T08:22:34;17.40;99.90
13482;DHT22;6813;60.352;15.746;2023-06-19T08:25:00;17.50;99.90
13482;DHT22;6813;60.352;15.746;2023-06-19T08:27:26;17.40;99.90
13482;DHT22;6813;60.352;15.746;2023-06-19T08:29:51;17.50;99.90
13482;DHT22;6813;60.352;15.746;2023-06-19T08:32:17;17.50;99.90
13482;DHT22;6813;60.352;15.746;2023-06-19T08:34:43;17.50;99.90
13482;DHT22;6813;60.352;15.746;2023-06-19T08:37:08;17.50;99.90
13482;DHT22;6813;60.352;15.746;2023-06-19T08:39:34;17.60;99.90
13482;DHT22;6813;60.352;15.746;2023-06-19T08:42:05;17.60;99.90
13482;DHT22;6813;60.352;15.746;2023-06-19T08:44:31;17.50;99.90
13482;DHT22;6813;60.352;15.746;2023-06-19T08:46:57;17.50;99.90
13482;DHT22;6813;60.352;15.746;2023-06-19T08:49:23;17.40;99.90
13482;DHT22;6813;60.352;15.746;2023-06-19T08:51:49;17.40;99.90
13482;DHT22;6813;60.352;15.746;2023-06-19T08:54:15;17.40;99.90
13482;DHT22;6813;60.352;15.746;2023-06-19T08:56:40;17.30;99.90
13482;DHT22;6813;60.352;15.746;2023-06-19T08:59:11;17.40;99.90
13482;DHT22;6813;60.352;15.746;2023-06-19T09:01:37;17.50;99.90
13482;DHT22;6813;60.352;15.746;2023-06-19T09:04:13;17.50;99.90
13482;DHT22;6813;60.352;15.746;2023-06-19T09:06:50;17.60;99.90
13482;DHT22;6813;60.352;15.746;2023-06-19T09:09:18;17.60;99.90
13482;DHT22;6813;60.352;15.746;2023-06-19T09:14:35;17.60;99.90
13482;DHT22;6813;60.352;15.746;2023-06-19T09:17:06;17.60;99.90
13482;DHT22;6813;60.352;15.746;2023-06-19T09:19:35;17.70;99.90
13482;DHT22;6813;60.352;15.746;2023-06-19T09:22:02;17.80;99.90
13482;DHT22;6813;60.352;15.746;2023-06-19T09:24:36;17.90;99.90
13482;DHT22;6813;60.352;15.746;2023-06-19T09:27:20;18.10;99.90
13482;DHT22;6813;60.352;15.746;2023-06-19T09:29:48;18.40;99.90
13482;DHT22;6813;60.352;15.746;2023-06-19T09:32:25;18.60;99.90
13482;DHT22;6813;60.352;15.746;2023-06-19T09:34:52;18.80;99.90
13482;DHT22;6813;60.352;15.746;2023-06-19T09:37:27;19.00;99.90
13482;DHT22;6813;60.352;15.746;2023-06-19T09:39:56;19.30;99.90
13482;DHT22;6813;60.352;15.746;2023-06-19T09:42:35;19.50;99.90
13482;DHT22;6813;60.352;15.746;2023-06-19T09:45:05;19.50;99.90
13482;DHT22;6813;60.352;15.746;2023-06-19T09:47:39;19.50;99.90
13482;DHT22;6813;60.352;15.746;2023-06-19T09:50:06;19.50;99.90
13482;DHT22;6813;60.352;15.746;2023-06-19T09:52:33;19.60;99.90
13482;DHT22;6813;60.352;15.746;2023-06-19T09:55:04;19.50;99.90
13482;DHT22;6813;60.352;15.746;2023-06-19T09:57:34;19.50;99.90
13482;DHT22;6813;60.352;15.746;2023-06-19T10:00:03;19.50;99.90
13482;DHT22;6813;60.352;15.746;2023-06-19T10:02:43;19.50;99.90
13482;DHT22;6813;60.352;15.746;2023-06-19T10:05:09;19.50;99.90
13482;DHT22;6813;60.352;15.746;2023-06-19T10:07:40;19.40;99.90
13482;DHT22;6813;60.352;15.746;2023-06-19T10:10:09;19.30;99.90
13482;DHT22;6813;60.352;15.746;2023-06-19T10:12:36;19.20;99.90
13482;DHT22;6813;60.352;15.746;2023-06-19T10:15:27;19.10;99.90
13482;DHT22;6813;60.352;15.746;2023-06-19T10:18:04;19.20;99.90
13482;DHT22;6813;60.352;15.746;2023-06-19T10:20:37;19.40;99.90
13482;DHT22;6813;60.352;15.746;2023-06-19T10:23:10;19.60;99.90
13482;DHT22;6813;60.352;15.746;2023-06-19T10:25:44;19.80;99.90
13482;DHT22;6813;60.352;15.746;2023-06-19T10:28:27;20.00;99.90
13482;DHT22;6813;60.352;15.746;2023-06-19T10:30:59;20.20;99.90
13482;DHT22;6813;60.352;15.746;2023-06-19T10:33:27;20.50;99.90
13482;DHT22;6813;60.352;15.746;2023-06-19T10:35:53;20.90;99.90
13482;DHT22;6813;60.352;15.746;2023-06-19T10:38:19;21.10;99.90
13482;DHT22;6813;60.352;15.746;2023-06-19T10:40:45;21.40;99.90
13482;DHT22;6813;60.352;15.746;2023-06-19T10:43:12;21.50;99.90
13482;DHT22;6813;60.352;15.746;2023-06-19T10:45:38;21.40;99.90
13482;DHT22;6813;60.352;15.746;2023-06-19T10:48:04;21.30;99.90
13482;DHT22;6813;60.352;15.746;2023-06-19T10:50:34;21.30;99.90
13482;DHT22;6813;60.352;15.746;2023-06-19T10:53:01;21.50;99.90
13482;DHT22;6813;60.352;15.746;2023-06-19T10:55:27;21.60;99.90
13482;DHT22;6813;60.352;15.746;2023-06-19T10:57:52;21.70;99.90
13482;DHT22;6813;60.352;15.746;2023-06-19T11:02:50;21.90;99.90
13482;DHT22;6813;60.352;15.746;2023-06-19T11:05:16;21.80;99.90
13482;DHT22;6813;60.352;15.746;2023-06-19T11:07:51;22.20;99.90
13482;DHT22;6813;60.352;15.746;2023-06-19T11:10:21;22.10;99.90
13482;DHT22;6813;60.352;15.746;2023-06-19T11:12:48;22.00;99.90
13482;DHT22;6813;60.352;15.746;2023-06-19T11:15:14;22.20;99.90
13482;DHT22;6813;60.352;15.746;2023-06-19T11:17:40;22.40;99.90
13482;DHT22;6813;60.352;15.746;2023-06-19T11:20:11;22.30;99.90
13482;DHT22;6813;60.352;15.746;2023-06-19T11:22:41;22.10;99.90
13482;DHT22;6813;60.352;15.746;2023-06-19T11:25:08;22.20;99.90
13482;DHT22;6813;60.352;15.746;2023-06-19T11:27:37;22.30;99.90
13482;DHT22;6813;60.352;15.746;2023-06-19T11:30:05;22.50;99.90
13482;DHT22;6813;60.352;15.746;2023-06-19T11:32:37;22.70;99.90
13482;DHT22;6813;60.352;15.746;2023-06-19T11:35:11;22.70;99.90
13482;DHT22;6813;60.352;15.746;2023-06-19T11:37:39;22.50;99.90
13482;DHT22;6813;60.352;15.746;2023-06-19T11:40:06;22.40;99.90
13482;DHT22;6813;60.352;15.746;2023-06-19T11:42:52;22.30;99.90
13482;DHT22;6813;60.352;15.746;2023-06-19T11:45:18;22.40;99.90
13482;DHT22;6813;60.352;15.746;2023-06-19T11:47:48;22.40;99.90
13482;DHT22;6813;60.352;15.746;2023-06-19T11:50:14;22.50;99.90
13482;DHT22;6813;60.352;15.746;2023-06-19T11:52:44;22.80;99.90
13482;DHT22;6813;60.352;15.746;2023-06-19T11:55:10;22.70;99.90
13482;DHT22;6813;60.352;15.746;2023-06-19T11:57:36;22.40;99.90
13482;DHT22;6813;60.352;15.746;2023-06-19T12:00:02;22.30;99.90
13482;DHT22;6813;60.352;15.746;2023-06-19T12:02:33;22.40;99.90
13482;DHT22;6813;60.352;15.746;2023-06-19T12:04:58;22.20;99.90
13482;DHT22;6813;60.352;15.746;2023-06-19T12:07:25;21.90;99.90
13482;DHT22;6813;60.352;15.746;2023-06-19T12:09:50;21.70;99.90
13482;DHT22;6813;60.352;15.746;2023-06-19T12:12:17;21.90;99.90
13482;DHT22;6813;60.352;15.746;2023-06-19T12:14:43;22.00;99.90
13482;DHT22;6813;60.352;15.746;2023-06-19T12:17:09;21.80;99.90
13482;DHT22;6813;60.352;15.746;2023-06-19T12:19:35;22.10;99.90
13482;DHT22;6813;60.352;15.746;2023-06-19T12:22:01;22.00;99.90
13482;DHT22;6813;60.352;15.746;2023-06-19T12:24:27;22.20;99.90
13482;DHT22;6813;60.352;15.746;2023-06-19T12:26:52;22.60;99.90
13482;DHT22;6813;60.352;15.746;2023-06-19T12:29:18;22.70;99.90
13482;DHT22;6813;60.352;15.746;2023-06-19T12:31:46;22.70;99.90
13482;DHT22;6813;60.352;15.746;2023-06-19T12:34:11;22.50;99.90
13482;DHT22;6813;60.352;15.746;2023-06-19T12:36:37;22.40;99.90
13482;DHT22;6813;60.352;15.746;2023-06-19T12:39:03;22.50;99.90
13482;DHT22;6813;60.352;15.746;2023-06-19T12:41:31;22.50;99.90
13482;DHT22;6813;60.352;15.746;2023-06-19T12:43:57;22.30;99.90
13482;DHT22;6813;60.352;15.746;2023-06-19T12:46:22;21.90;99.90
13482;DHT22;6813;60.352;15.746;2023-06-19T12:48:48;21.70;99.90
13482;DHT22;6813;60.352;15.746;2023-06-19T12:51:17;21.70;99.90
13482;DHT22;6813;60.352;15.746;2023-06-19T12:53:43;21.90;99.90
13482;DHT22;6813;60.352;15.746;2023-06-19T12:56:09;22.20;99.90
13482;DHT22;6813;60.352;15.746;2023-06-19T12:58:35;22.30;99.90
13482;DHT22;6813;60.352;15.746;2023-06-19T13:01:00;22.50;99.90
13482;DHT22;6813;60.352;15.746;2023-06-19T13:03:26;22.40;99.90
13482;DHT22;6813;60.352;15.746;2023-06-19T13:05:52;22.30;99.90
13482;DHT22;6813;60.352;15.746;2023-06-19T13:08:18;22.20;99.90
13482;DHT22;6813;60.352;15.746;2023-06-19T13:10:43;22.20;99.90
13482;DHT22;6813;60.352;15.746;2023-06-19T13:13:09;22.20;99.90
13482;DHT22;6813;60.352;15.746;2023-06-19T13:15:36;22.20;99.90
13482;DHT22;6813;60.352;15.746;2023-06-19T13:18:01;22.20;99.90
13482;DHT22;6813;60.352;15.746;2023-06-19T13:20:27;22.40;99.90
13482;DHT22;6813;60.352;15.746;2023-06-19T13:22:53;22.50;99.90
13482;DHT22;6813;60.352;15.746;2023-06-19T13:25:19;22.40;99.90
13482;DHT22;6813;60.352;15.746;2023-06-19T13:27:45;22.40;99.90
13482;DHT22;6813;60.352;15.746;2023-06-19T13:30:11;22.00;99.90
13482;DHT22;6813;60.352;15.746;2023-06-19T13:32:37;21.70;99.90
13482;DHT22;6813;60.352;15.746;2023-06-19T13:35:04;21.60;99.90
13482;DHT22;6813;60.352;15.746;2023-06-19T13:37:30;21.40;99.90
13482;DHT22;6813;60.352;15.746;2023-06-19T13:39:56;21.40;99.90
13482;DHT22;6813;60.352;15.746;2023-06-19T13:42:22;21.30;99.90
13482;DHT22;6813;60.352;15.746;2023-06-19T13:44:47;21.40;99.90
13482;DHT22;6813;60.352;15.746;2023-06-19T13:47:13;21.40;99.90
13482;DHT22;6813;60.352;15.746;2023-06-19T13:49:39;21.40;99.90
13482;DHT22;6813;60.352;15.746;2023-06-19T13:52:05;21.30;99.90
13482;DHT22;6813;60.352;15.746;2023-06-19T13:54:31;21.30;99.90
13482;DHT22;6813;60.352;15.746;2023-06-19T13:56:57;21.40;99.90
13482;DHT22;6813;60.352;15.746;2023-06-19T13:59:22;21.50;99.90
13482;DHT22;6813;60.352;15.746;2023-06-19T14:01:48;21.40;99.90
13482;DHT22;6813;60.352;15.746;2023-06-19T14:04:14;21.40;99.90
13482;DHT22;6813;60.352;15.746;2023-06-19T14:06:39;21.50;99.90
13482;DHT22;6813;60.352;15.746;2023-06-19T14:09:08;21.50;99.90
13482;DHT22;6813;60.352;15.746;2023-06-19T14:11:34;21.40;99.90
13482;DHT22;6813;60.352;15.746;2023-06-19T14:13:59;21.50;99.90
13482;DHT22;6813;60.352;15.746;2023-06-19T14:16:25;21.50;99.90
13482;DHT22;6813;60.352;15.746;2023-06-19T14:18:50;21.50;99.90
13482;DHT22;6813;60.352;15.746;2023-06-19T14:21:16;21.50;99.90
13482;DHT22;6813;60.352;15.746;2023-06-19T14:23:42;21.40;99.90
13482;DHT22;6813;60.352;15.746;2023-06-19T14:26:11;21.40;99.90
13482;DHT22;6813;60.352;15.746;2023-06-19T14:28:37;21.50;99.90
13482;DHT22;6813;60.352;15.746;2023-06-19T14:31:06;21.50;99.90
13482;DHT22;6813;60.352;15.746;2023-06-19T14:33:32;21.60;99.90
13482;DHT22;6813;60.352;15.746;2023-06-19T14:36:00;21.60;99.90
13482;DHT22;6813;60.352;15.746;2023-06-19T14:38:27;21.50;99.90
13482;DHT22;6813;60.352;15.746;2023-06-19T14:40:57;21.50;99.90
13482;DHT22;6813;60.352;15.746;2023-06-19T14:43:24;21.50;99.90
13482;DHT22;6813;60.352;15.746;2023-06-19T14:45:49;21.50;99.90
13482;DHT22;6813;60.352;15.746;2023-06-19T14:48:15;21.60;99.90
13482;DHT22;6813;60.352;15.746;2023-06-19T14:50:42;21.70;99.90
13482;DHT22;6813;60.352;15.746;2023-06-19T14:53:08;21.80;99.90
13482;DHT22;6813;60.352;15.746;2023-06-19T14:55:34;21.70;99.90
13482;DHT22;6813;60.352;15.746;2023-06-19T14:57:59;21.60;99.90
13482;DHT22;6813;60.352;15.746;2023-06-19T15:00:25;21.60;99.90
13482;DHT22;6813;60.352;15.746;2023-06-19T15:02:51;21.30;99.90
13482;DHT22;6813;60.352;15.746;2023-06-19T15:05:17;21.20;99.90
13482;DHT22;6813;60.352;15.746;2023-06-19T15:07:42;21.20;99.90
13482;DHT22;6813;60.352;15.746;2023-06-19T15:10:08;21.20;99.90
13482;DHT22;6813;60.352;15.746;2023-06-19T15:12:34;21.20;99.90
13482;DHT22;6813;60.352;15.746;2023-06-19T15:15:00;21.20;99.90
13482;DHT22;6813;60.352;15.746;2023-06-19T15:17:26;21.40;99.90
13482;DHT22;6813;60.352;15.746;2023-06-19T15:19:52;21.30;99.90
13482;DHT22;6813;60.352;15.746;2023-06-19T15:22:17;21.30;99.90
13482;DHT22;6813;60.352;15.746;2023-06-19T15:24:43;21.40;99.90
13482;DHT22;6813;60.352;15.746;2023-06-19T15:27:09;21.40;99.90
13482;DHT22;6813;60.352;15.746;2023-06-19T15:29:34;21.40;99.90
13482;DHT22;6813;60.352;15.746;2023-06-19T15:32:01;21.30;99.90
13482;DHT22;6813;60.352;15.746;2023-06-19T15:34:26;21.00;99.90
13482;DHT22;6813;60.352;15.746;2023-06-19T15:36:52;21.20;99.90